Pilot_jp_virden — WD14560 — position and weather

sailwx.info

Track history (hours):
 
Tides and Currents Weather Stations Pressure Air Temp Water Temp Dewpoint Dewpoint Depression Visibility Wind Speed Wind Dir Waves Ship Positions

Pilot_jp_virden

Last reported at 2017-Oct-18 05:25 UTC. Time now 2017-Oct-18 05:39 UTC.
Position N 38°47' W 075°07'.

Length 16 m.

Type: Pilot. MMSI: 367699890.

Date/timePositionNaut miles runAvg speedWind from/ knotsBaromVisibWave heightAir tempDewpointWater temp
2017-Oct-18 05:25N 38°47' W 075°07'0 0.0
2017-Oct-18 05:00N 38°47' W 075°07'0 0.0
2017-Oct-18 04:26N 38°47' W 075°07'0 0.0
2017-Oct-18 04:00N 38°47' W 075°07'0 0.0
2017-Oct-18 02:49N 38°47' W 075°07'2 4.4
2017-Oct-18 02:18N 38°49' W 075°05'  
2017-Oct-15 14:47N 38°49' W 075°05'1 0.1
2017-Oct-14 23:55N 38°50' W 075°05'4 0.8
2017-Oct-14 19:26N 38°47' W 075°02'4 2.2
2017-Oct-14 17:33N 38°47' W 075°07'  
2017-Oct-11 00:00N 38°47' W 075°07'4 0.5
2017-Oct-10 15:42N 38°50' W 075°05'413.7
2017-Oct-10 15:26N 38°47' W 075°07'0 0.1
2017-Oct-10 14:58N 38°47' W 075°07'0 0.1
2017-Oct-10 13:35N 38°47' W 075°07'113.4
2017-Oct-10 13:31N 38°48' W 075°07'1 1.9
2017-Oct-10 13:00N 38°47' W 075°07'0 0.0
2017-Oct-10 12:30N 38°47' W 075°07'0 0.0
2017-Oct-10 11:59N 38°47' W 075°07'0 0.0
2017-Oct-10 11:30N 38°47' W 075°07'0 0.1
2017-Oct-10 10:26N 38°47' W 075°07'0 0.0
2017-Oct-10 08:27N 38°47' W 075°07'0 0.0
2017-Oct-10 08:00N 38°47' W 075°07'0 0.0
2017-Oct-10 07:30N 38°47' W 075°07'0 0.0
2017-Oct-10 06:59N 38°47' W 075°07'0 0.0
2017-Oct-10 06:30N 38°47' W 075°07'0 0.0
2017-Oct-10 06:00N 38°47' W 075°07'0 0.0
2017-Oct-10 05:26N 38°47' W 075°07'0 0.0
2017-Oct-10 05:00N 38°47' W 075°07'5 0.2
2017-Oct-09 09:36N 38°51' W 075°05'416.6
2017-Oct-09 09:24N 38°48' W 075°07'1 3.2
2017-Oct-09 09:00N 38°47' W 075°07'0 0.0
2017-Oct-09 08:27N 38°47' W 075°07'0 0.0
2017-Oct-09 08:00N 38°47' W 075°07'0 0.0
2017-Oct-09 07:29N 38°47' W 075°07'0 0.0
2017-Oct-09 06:59N 38°47' W 075°07'0 0.0
2017-Oct-09 06:28N 38°47' W 075°07'0 0.0
2017-Oct-09 05:59N 38°47' W 075°07'0 0.0
2017-Oct-09 05:27N 38°47' W 075°07'0 0.2
2017-Oct-09 05:00N 38°47' W 075°07'3 5.3
2017-Oct-09 04:30N 38°49' W 075°05'3 6.7
2017-Oct-09 03:58N 38°48' W 075°01'5 4.5
2017-Oct-09 02:58N 38°47' W 075°07'0 0.0
2017-Oct-09 02:30N 38°47' W 075°07'2 0.1
2017-Oct-08 06:07N 38°49' W 075°06'316.6
2017-Oct-08 05:58N 38°48' W 075°02'  
Track history (hours):
 
Tides and Currents Weather Stations Pressure Air Temp Water Temp Dewpoint Dewpoint Depression Visibility Wind Speed Wind Dir Waves Ship Positions

Pilot_jp_virden

Last reported at 2017-Oct-18 05:25 UTC. Time now 2017-Oct-18 05:39 UTC.
Position N 38°47' W 075°07'.

Length 16 m.

Type: Pilot. MMSI: 367699890.

Date/timePositionNaut miles runAvg speedWind from/ knotsBaromVisibWave heightAir tempDewpointWater temp
2017-Oct-18 05:25N 38°47' W 075°07'0 0.0
2017-Oct-18 05:00N 38°47' W 075°07'0 0.0
2017-Oct-18 04:26N 38°47' W 075°07'0 0.0
2017-Oct-18 04:00N 38°47' W 075°07'0 0.0
2017-Oct-18 02:49N 38°47' W 075°07'2 4.4
2017-Oct-18 02:18N 38°49' W 075°05'  
2017-Oct-15 14:47N 38°49' W 075°05'1 0.1
2017-Oct-14 23:55N 38°50' W 075°05'4 0.8
2017-Oct-14 19:26N 38°47' W 075°02'4 2.2
2017-Oct-14 17:33N 38°47' W 075°07'  
2017-Oct-11 00:00N 38°47' W 075°07'4 0.5
2017-Oct-10 15:42N 38°50' W 075°05'413.7
2017-Oct-10 15:26N 38°47' W 075°07'0 0.1
2017-Oct-10 14:58N 38°47' W 075°07'0 0.1
2017-Oct-10 13:35N 38°47' W 075°07'113.4
2017-Oct-10 13:31N 38°48' W 075°07'1 1.9
2017-Oct-10 13:00N 38°47' W 075°07'0 0.0
2017-Oct-10 12:30N 38°47' W 075°07'0 0.0
2017-Oct-10 11:59N 38°47' W 075°07'0 0.0
2017-Oct-10 11:30N 38°47' W 075°07'0 0.1
2017-Oct-10 10:26N 38°47' W 075°07'0 0.0
2017-Oct-10 08:27N 38°47' W 075°07'0 0.0
2017-Oct-10 08:00N 38°47' W 075°07'0 0.0
2017-Oct-10 07:30N 38°47' W 075°07'0 0.0
2017-Oct-10 06:59N 38°47' W 075°07'0 0.0
2017-Oct-10 06:30N 38°47' W 075°07'0 0.0
2017-Oct-10 06:00N 38°47' W 075°07'0 0.0
2017-Oct-10 05:26N 38°47' W 075°07'0 0.0
2017-Oct-10 05:00N 38°47' W 075°07'5 0.2
2017-Oct-09 09:36N 38°51' W 075°05'416.6
2017-Oct-09 09:24N 38°48' W 075°07'1 3.2
2017-Oct-09 09:00N 38°47' W 075°07'0 0.0
2017-Oct-09 08:27N 38°47' W 075°07'0 0.0
2017-Oct-09 08:00N 38°47' W 075°07'0 0.0
2017-Oct-09 07:29N 38°47' W 075°07'0 0.0
2017-Oct-09 06:59N 38°47' W 075°07'0 0.0
2017-Oct-09 06:28N 38°47' W 075°07'0 0.0
2017-Oct-09 05:59N 38°47' W 075°07'0 0.0
2017-Oct-09 05:27N 38°47' W 075°07'0 0.2
2017-Oct-09 05:00N 38°47' W 075°07'3 5.3
2017-Oct-09 04:30N 38°49' W 075°05'3 6.7
2017-Oct-09 03:58N 38°48' W 075°01'5 4.5
2017-Oct-09 02:58N 38°47' W 075°07'0 0.0
2017-Oct-09 02:30N 38°47' W 075°07'2 0.1
2017-Oct-08 06:07N 38°49' W 075°06'316.6
2017-Oct-08 05:58N 38°48' W 075°02'  

Dump ship's entire track history